createdAt,value
2023-03-24T00:00:29.736Z,1014.6
2023-03-24T00:02:29.754Z,1014.6
2023-03-24T00:04:29.798Z,1014.6
2023-03-24T00:06:29.706Z,1014.5
2023-03-24T00:08:29.738Z,1014.5
2023-03-24T00:10:29.693Z,1014.5
2023-03-24T00:11:49.206Z,1014.5
2023-03-24T00:13:02.798Z,1014.5
2023-03-24T00:14:29.740Z,1014.5
2023-03-24T00:16:29.775Z,1014.6
2023-03-24T00:18:29.687Z,1014.6
2023-03-24T00:20:29.760Z,1014.6
2023-03-24T00:22:29.753Z,1014.6
2023-03-24T00:24:29.794Z,1014.6
2023-03-24T00:26:29.701Z,1014.6
2023-03-24T00:28:29.769Z,1014.6
2023-03-24T00:30:29.724Z,1014.7
2023-03-24T00:32:29.703Z,1014.6
2023-03-24T00:34:29.752Z,1014.6
2023-03-24T00:36:29.718Z,1014.6
2023-03-24T00:38:29.709Z,1014.6
2023-03-24T00:40:29.675Z,1014.7
2023-03-24T00:42:29.656Z,1014.6
2023-03-24T00:44:29.724Z,1014.6
2023-03-24T00:46:30.008Z,1014.7
2023-03-24T00:48:29.738Z,1014.7
2023-03-24T00:50:29.663Z,1014.7
2023-03-24T00:52:29.711Z,1014.8
2023-03-24T00:54:29.688Z,1014.7
2023-03-24T00:56:29.675Z,1014.8
2023-03-24T00:58:29.716Z,1014.8
2023-03-24T01:00:29.786Z,1014.8
2023-03-24T01:02:29.703Z,1014.8
2023-03-24T01:04:29.651Z,1014.9
2023-03-24T01:06:29.690Z,1014.9
2023-03-24T01:08:29.653Z,1014.8
2023-03-24T01:10:29.689Z,1014.9
2023-03-24T01:12:29.670Z,1014.9
2023-03-24T01:14:29.615Z,1015
2023-03-24T01:16:51.627Z,1015
2023-03-24T01:18:29.640Z,1014.9
2023-03-24T01:20:29.626Z,1014.9
2023-03-24T01:22:29.651Z,1014.9
2023-03-24T01:24:29.626Z,1014.9
2023-03-24T01:26:29.590Z,1015
2023-03-24T01:28:29.601Z,1015
2023-03-24T01:30:29.666Z,1015
2023-03-24T01:32:29.630Z,1015.1
2023-03-24T01:34:29.669Z,1015.1
2023-03-24T01:36:29.645Z,1015.1
2023-03-24T01:38:29.576Z,1015.1
2023-03-24T01:40:29.625Z,1015.1
2023-03-24T01:42:29.583Z,1015.1
2023-03-24T01:44:29.626Z,1015.2
2023-03-24T01:46:29.605Z,1015.2
2023-03-24T01:48:29.591Z,1015.3
2023-03-24T01:50:29.624Z,1015.3
2023-03-24T01:52:29.635Z,1015.3
2023-03-24T01:54:29.588Z,1015.3
2023-03-24T01:56:29.646Z,1015.3
2023-03-24T01:58:29.717Z,1015.3
2023-03-24T02:00:29.620Z,1015.3
2023-03-24T02:02:29.640Z,1015.3
2023-03-24T02:04:29.623Z,1015.3
2023-03-24T02:06:29.560Z,1015.2
2023-03-24T02:08:29.564Z,1015.2
2023-03-24T02:10:29.646Z,1015.3
2023-03-24T02:12:29.559Z,1015.3
2023-03-24T02:14:29.559Z,1015.4
2023-03-24T02:16:29.670Z,1015.3
2023-03-24T02:18:29.549Z,1015.4
2023-03-24T02:20:29.620Z,1015.4
2023-03-24T02:22:29.596Z,1015.4
2023-03-24T02:24:29.660Z,1015.4
2023-03-24T02:26:29.606Z,1015.4
2023-03-24T02:28:29.581Z,1015.4
2023-03-24T02:30:29.573Z,1015.4
2023-03-24T02:32:29.606Z,1015.4
2023-03-24T02:34:29.532Z,1015.4
2023-03-24T02:36:29.644Z,1015.4
2023-03-24T02:38:29.546Z,1015.4
2023-03-24T02:40:29.606Z,1015.4
2023-03-24T02:42:29.553Z,1015.4
2023-03-24T02:44:29.651Z,1015.4
2023-03-24T02:46:29.529Z,1015.4
2023-03-24T02:48:29.533Z,1015.4
2023-03-24T02:50:29.556Z,1015.4
2023-03-24T02:52:29.582Z,1015.4
2023-03-24T02:54:29.592Z,1015.4
2023-03-24T02:56:29.508Z,1015.3
2023-03-24T02:58:29.516Z,1015.4
2023-03-24T03:00:29.499Z,1015.3
2023-03-24T03:02:29.660Z,1015.3
2023-03-24T03:04:29.615Z,1015.3
2023-03-24T03:06:29.539Z,1015.3
2023-03-24T03:08:29.586Z,1015.3
2023-03-24T03:10:29.587Z,1015.3
2023-03-24T03:11:37.135Z,1015.3
2023-03-24T03:12:29.494Z,1015.4
2023-03-24T03:14:29.503Z,1015.3
2023-03-24T03:16:29.515Z,1015.4
2023-03-24T03:18:29.550Z,1015.3
2023-03-24T03:20:29.498Z,1015.3
2023-03-24T03:22:29.557Z,1015.3
2023-03-24T03:24:29.584Z,1015.3
2023-03-24T03:26:29.597Z,1015.3
2023-03-24T03:28:29.622Z,1015.3
2023-03-24T03:30:29.475Z,1015.3
2023-03-24T03:32:29.501Z,1015.2
2023-03-24T03:34:29.585Z,1015.3
2023-03-24T03:36:29.588Z,1015.2
2023-03-24T03:38:29.567Z,1015.2
2023-03-24T03:40:29.446Z,1015.2
2023-03-24T03:42:29.588Z,1015.2
2023-03-24T03:44:29.528Z,1015.2
2023-03-24T03:46:29.535Z,1015.2
2023-03-24T03:48:29.578Z,1015.2
2023-03-24T03:50:29.471Z,1015.2
2023-03-24T03:52:29.535Z,1015.2
2023-03-24T03:54:29.506Z,1015.2
2023-03-24T03:56:29.583Z,1015.2
2023-03-24T03:58:29.569Z,1015.1
2023-03-24T04:00:29.529Z,1015.1
2023-03-24T04:01:47.476Z,1015.1
2023-03-24T04:04:29.468Z,1015.1
2023-03-24T04:06:29.501Z,1015.1
2023-03-24T04:08:29.507Z,1015.1
2023-03-24T04:10:29.407Z,1015.1
2023-03-24T04:12:29.523Z,1015.1
2023-03-24T04:14:29.459Z,1015.1
2023-03-24T04:16:29.536Z,1015.1
2023-03-24T04:18:29.465Z,1015
2023-03-24T04:20:10.439Z,1015
2023-03-24T04:22:29.484Z,1015.1
2023-03-24T04:24:29.430Z,1015.1
2023-03-24T04:26:29.494Z,1015.1
2023-03-24T04:28:29.444Z,1015.1
2023-03-24T04:30:29.450Z,1015.1
2023-03-24T04:32:29.483Z,1015
2023-03-24T04:34:40.148Z,1015
2023-03-24T04:36:29.502Z,1014.9
2023-03-24T04:38:51.793Z,1014.9
2023-03-24T04:40:29.459Z,1014.9
2023-03-24T04:42:29.567Z,1014.9
2023-03-24T04:44:29.448Z,1014.8
2023-03-24T04:46:29.476Z,1014.8
2023-03-24T04:48:29.441Z,1014.7
2023-03-24T04:50:29.471Z,1014.6
2023-03-24T04:53:14.986Z,1014.6
2023-03-24T04:54:29.440Z,1014.7
2023-03-24T04:56:29.401Z,1014.6
2023-03-24T04:58:29.493Z,1014.7
2023-03-24T05:00:29.418Z,1014.7
2023-03-24T05:02:29.390Z,1014.8
2023-03-24T05:04:29.460Z,1014.8
2023-03-24T05:06:29.487Z,1014.8
2023-03-24T05:08:10.982Z,1014.8
2023-03-24T05:11:12.108Z,1014.8
2023-03-24T05:12:29.379Z,1014.7
2023-03-24T05:14:29.356Z,1014.7
2023-03-24T05:15:59.233Z,1014.7
2023-03-24T05:16:29.385Z,1014.7
2023-03-24T05:18:29.391Z,1014.7
2023-03-24T05:20:29.387Z,1014.7
2023-03-24T05:22:29.401Z,1014.7
2023-03-24T05:24:29.476Z,1014.7
2023-03-24T05:26:30.781Z,1014.7
2023-03-24T05:28:29.459Z,1014.7
2023-03-24T05:30:29.366Z,1014.7
2023-03-24T05:31:38.197Z,1014.7
2023-03-24T05:32:29.444Z,1014.8
2023-03-24T05:34:29.356Z,1014.7
2023-03-24T05:36:29.392Z,1014.7
2023-03-24T05:38:29.361Z,1014.7
2023-03-24T05:40:29.400Z,1014.6
2023-03-24T05:42:27.708Z,1014.6
2023-03-24T05:42:29.373Z,1014.6
2023-03-24T05:43:41.831Z,1014.6
2023-03-24T05:46:29.374Z,1014.6
2023-03-24T05:48:29.363Z,1014.6
2023-03-24T05:50:29.327Z,1014.6
2023-03-24T05:52:29.379Z,1014.6
2023-03-24T05:54:29.950Z,1014.5
2023-03-24T05:56:29.391Z,1014.6
2023-03-24T05:58:29.367Z,1014.5
2023-03-24T06:00:29.386Z,1014.5
2023-03-24T06:02:29.462Z,1014.6
2023-03-24T06:04:39.026Z,1014.6
2023-03-24T06:06:29.304Z,1014.6
2023-03-24T06:08:29.385Z,1014.6
2023-03-24T06:10:29.348Z,1014.7
2023-03-24T06:12:29.401Z,1014.7
2023-03-24T06:14:29.328Z,1014.7
2023-03-24T06:16:29.320Z,1014.7
2023-03-24T06:18:29.379Z,1014.8
2023-03-24T06:20:29.365Z,1014.7
2023-03-24T06:22:29.364Z,1014.7
2023-03-24T06:24:29.364Z,1014.8
2023-03-24T06:26:29.398Z,1014.8
2023-03-24T06:28:29.270Z,1014.8
2023-03-24T06:30:29.284Z,1014.8
2023-03-24T06:32:29.320Z,1014.7
2023-03-24T06:34:29.334Z,1014.7
2023-03-24T06:36:29.306Z,1014.7
2023-03-24T06:38:29.304Z,1014.7
2023-03-24T06:40:29.282Z,1014.7
2023-03-24T06:42:29.366Z,1014.7
2023-03-24T06:42:29.397Z,1014.7
2023-03-24T06:44:29.260Z,1014.7
2023-03-24T06:46:29.415Z,1014.7
2023-03-24T06:48:29.294Z,1014.7
2023-03-24T06:50:29.266Z,1014.7
2023-03-24T06:52:29.244Z,1014.7
2023-03-24T06:54:29.237Z,1014.7
2023-03-24T06:56:29.372Z,1014.7
2023-03-24T06:58:29.321Z,1014.7
2023-03-24T07:00:29.323Z,1014.7
2023-03-24T07:02:29.369Z,1014.7
2023-03-24T07:04:29.269Z,1014.6
2023-03-24T07:07:05.526Z,1014.6
2023-03-24T07:08:37.873Z,1014.6
2023-03-24T07:10:29.244Z,1014.6
2023-03-24T07:12:29.270Z,1014.6
2023-03-24T07:14:29.320Z,1014.6
2023-03-24T07:16:29.406Z,1014.5
2023-03-24T07:18:29.295Z,1014.6
2023-03-24T07:20:29.307Z,1014.5
2023-03-24T07:22:29.375Z,1014.5
2023-03-24T07:24:31.284Z,1014.5
2023-03-24T07:26:29.257Z,1014.4
2023-03-24T07:28:29.186Z,1014.4
2023-03-24T07:30:39.633Z,1014.3
2023-03-24T07:32:29.221Z,1014.3
2023-03-24T07:34:29.248Z,1014.3
2023-03-24T07:36:29.197Z,1014.2
2023-03-24T07:38:29.238Z,1014.3
2023-03-24T07:40:28.624Z,1014.3
2023-03-24T07:42:00.057Z,1014.2
2023-03-24T07:42:29.173Z,1014.2
2023-03-24T07:43:12.738Z,1014.2
2023-03-24T07:44:29.173Z,1014.2
2023-03-24T07:46:29.260Z,1014.2
2023-03-24T07:48:29.177Z,1014.2
2023-03-24T07:49:46.167Z,1014.2
2023-03-24T07:50:29.201Z,1014.2
2023-03-24T07:52:29.181Z,1014.2
2023-03-24T07:53:04.946Z,1014.2
2023-03-24T07:54:29.168Z,1014.1
2023-03-24T07:56:29.170Z,1014.1
2023-03-24T07:58:29.142Z,1014
2023-03-24T08:00:29.190Z,1014.1
2023-03-24T08:02:29.219Z,1014
2023-03-24T08:04:29.230Z,1014
2023-03-24T08:07:02.297Z,1014
2023-03-24T08:08:29.250Z,1014
2023-03-24T08:10:29.161Z,1014
2023-03-24T08:12:29.153Z,1014
2023-03-24T08:14:29.156Z,1014
2023-03-24T08:16:29.215Z,1013.9
2023-03-24T08:18:29.170Z,1013.9
2023-03-24T08:20:29.184Z,1014
2023-03-24T08:22:29.170Z,1014
2023-03-24T08:24:29.202Z,1013.9
2023-03-24T08:26:08.912Z,1013.9
2023-03-24T08:27:21.608Z,1013.9
2023-03-24T08:28:29.198Z,1013.9
2023-03-24T08:30:29.219Z,1013.9
2023-03-24T08:32:29.183Z,1013.9
2023-03-24T08:34:29.201Z,1013.9
2023-03-24T08:36:29.200Z,1013.9
2023-03-24T08:38:29.166Z,1013.9
2023-03-24T08:40:29.140Z,1013.9
2023-03-24T08:41:53.354Z,1013.9
2023-03-24T08:44:30.224Z,1013.9
2023-03-24T08:46:29.182Z,1013.9
2023-03-24T08:48:10.606Z,1013.9
2023-03-24T08:48:29.107Z,1013.9
2023-03-24T08:50:29.101Z,1013.8
2023-03-24T08:52:15.840Z,1013.8
2023-03-24T08:54:29.216Z,1013.8
2023-03-24T08:56:29.143Z,1013.8
2023-03-24T08:58:29.108Z,1013.8
2023-03-24T09:00:29.238Z,1013.8
2023-03-24T09:02:29.209Z,1013.7
2023-03-24T09:04:29.155Z,1013.7
2023-03-24T09:07:21.055Z,1013.7
2023-03-24T09:08:29.272Z,1013.7
2023-03-24T09:10:31.453Z,1013.7
2023-03-24T09:12:29.222Z,1013.7
2023-03-24T09:14:29.154Z,1013.7
2023-03-24T09:16:38.087Z,1013.8
2023-03-24T09:18:29.104Z,1013.8
2023-03-24T09:20:29.133Z,1013.8
2023-03-24T09:22:29.062Z,1013.8
2023-03-24T09:24:05.376Z,1013.8
2023-03-24T09:26:29.175Z,1013.7
2023-03-24T09:28:29.154Z,1013.7
2023-03-24T09:30:30.610Z,1013.7
2023-03-24T09:32:29.146Z,1013.7
2023-03-24T09:34:29.098Z,1013.7
2023-03-24T09:36:31.060Z,1013.7
2023-03-24T09:38:29.108Z,1013.7
2023-03-24T09:40:29.135Z,1013.7
2023-03-24T09:42:29.122Z,1013.8
2023-03-24T09:44:29.156Z,1013.8
2023-03-24T09:46:29.147Z,1013.8
2023-03-24T09:48:11.537Z,1013.8
2023-03-24T09:50:29.068Z,1013.8
2023-03-24T09:52:18.135Z,1013.8
2023-03-24T09:54:29.091Z,1013.8
2023-03-24T09:56:29.083Z,1013.7
2023-03-24T09:58:29.111Z,1013.8
2023-03-24T10:00:29.135Z,1013.7
2023-03-24T10:02:29.150Z,1013.7
2023-03-24T10:04:29.177Z,1013.8
2023-03-24T10:06:29.076Z,1013.8
2023-03-24T10:08:30.753Z,1013.8
2023-03-24T10:10:29.067Z,1013.8
2023-03-24T10:12:29.045Z,1013.9
2023-03-24T10:14:29.028Z,1013.9
2023-03-24T10:16:29.123Z,1013.9
2023-03-24T10:18:29.057Z,1013.8
2023-03-24T10:20:29.074Z,1013.8
2023-03-24T10:22:29.020Z,1013.8
2023-03-24T10:24:29.082Z,1013.8
2023-03-24T10:26:29.108Z,1013.8
2023-03-24T10:27:33.404Z,1013.8
2023-03-24T10:30:29.036Z,1013.8
2023-03-24T10:32:29.051Z,1013.8
2023-03-24T10:34:29.113Z,1013.7
2023-03-24T10:36:29.070Z,1013.7
2023-03-24T10:38:29.163Z,1013.7
2023-03-24T10:40:33.590Z,1013.7
2023-03-24T10:42:29.077Z,1013.6
2023-03-24T10:44:29.057Z,1013.6
2023-03-24T10:46:29.208Z,1013.6
2023-03-24T10:48:29.007Z,1013.6
2023-03-24T10:50:29.088Z,1013.7
2023-03-24T10:52:29.069Z,1013.7
2023-03-24T10:54:29.044Z,1013.7
2023-03-24T10:56:29.134Z,1013.7
2023-03-24T10:58:03.679Z,1013.7
2023-03-24T11:00:28.969Z,1013.8
2023-03-24T11:02:29.103Z,1013.8
2023-03-24T11:04:58.474Z,1013.8
2023-03-24T11:06:29.023Z,1013.8
2023-03-24T11:08:29.129Z,1013.8
2023-03-24T11:10:28.960Z,1013.8
2023-03-24T11:12:28.966Z,1013.8
2023-03-24T11:14:28.979Z,1013.8
2023-03-24T11:16:29.099Z,1013.9
2023-03-24T11:18:50.651Z,1013.9
2023-03-24T11:20:28.991Z,1013.9
2023-03-24T11:22:28.994Z,1013.9
2023-03-24T11:24:29.019Z,1013.9
2023-03-24T11:26:29.031Z,1014
2023-03-24T11:28:29.021Z,1014
2023-03-24T11:30:28.950Z,1014
2023-03-24T11:32:29.003Z,1014
2023-03-24T11:34:28.967Z,1014
2023-03-24T11:36:29.062Z,1013.9
2023-03-24T11:38:28.971Z,1013.9
2023-03-24T11:40:29.032Z,1014
2023-03-24T11:42:28.982Z,1014
2023-03-24T11:44:28.966Z,1014
2023-03-24T11:46:29.035Z,1014
2023-03-24T11:48:28.984Z,1014
2023-03-24T11:50:28.937Z,1014
2023-03-24T11:52:28.953Z,1014
2023-03-24T11:54:30.588Z,1014
2023-03-24T11:56:28.968Z,1014
2023-03-24T11:58:28.928Z,1014.1
2023-03-24T12:00:29.885Z,1014
2023-03-24T12:02:29.028Z,1014.1
2023-03-24T12:04:28.975Z,1014.1
2023-03-24T12:06:28.962Z,1014.1
2023-03-24T12:08:28.980Z,1014.2
2023-03-24T12:09:52.497Z,1014.2
2023-03-24T12:12:28.986Z,1014.3
2023-03-24T12:14:28.992Z,1014.3
2023-03-24T12:16:28.926Z,1014.3
2023-03-24T12:18:28.939Z,1014.3
2023-03-24T12:20:28.896Z,1014.4
2023-03-24T12:22:28.914Z,1014.3
2023-03-24T12:24:28.930Z,1014.3
2023-03-24T12:26:28.896Z,1014.3
2023-03-24T12:28:28.883Z,1014.2
2023-03-24T12:30:28.926Z,1014.2
2023-03-24T12:32:28.943Z,1014.3
2023-03-24T12:34:28.948Z,1014.3
2023-03-24T12:35:43.685Z,1014.3
2023-03-24T12:38:28.981Z,1014.4
2023-03-24T12:40:28.907Z,1014.4
2023-03-24T12:42:28.853Z,1014.4
2023-03-24T12:44:28.930Z,1014.3
2023-03-24T12:46:37.153Z,1014.3
2023-03-24T12:48:43.290Z,1014.3
2023-03-24T12:50:28.862Z,1014.3
2023-03-24T12:51:45.370Z,1014.3
2023-03-24T12:54:28.921Z,1014.3
2023-03-24T12:56:28.863Z,1014.3
2023-03-24T12:58:50.298Z,1014.3
2023-03-24T13:00:28.842Z,1014.3
2023-03-24T13:02:29.047Z,1014.3
2023-03-24T13:04:28.891Z,1014.4
2023-03-24T13:06:28.869Z,1014.5
2023-03-24T13:08:28.891Z,1014.7
2023-03-24T13:10:28.929Z,1014.6
2023-03-24T13:12:28.919Z,1014.5
2023-03-24T13:14:28.867Z,1014.5
2023-03-24T13:16:28.902Z,1014.6
2023-03-24T13:18:28.917Z,1014.5
2023-03-24T13:20:28.910Z,1014.6
2023-03-24T13:22:28.864Z,1014.6
2023-03-24T13:24:28.865Z,1014.6
2023-03-24T13:26:28.941Z,1014.5
2023-03-24T13:28:28.832Z,1014.6
2023-03-24T13:30:28.821Z,1014.5
2023-03-24T13:32:28.856Z,1014.5
2023-03-24T13:34:28.857Z,1014.5
2023-03-24T13:35:20.126Z,1014.5
2023-03-24T13:36:28.974Z,1014.4
2023-03-24T13:38:28.892Z,1014.4
2023-03-24T13:40:28.814Z,1014.4
2023-03-24T13:42:28.877Z,1014.3
2023-03-24T13:44:28.873Z,1014.3
2023-03-24T13:46:28.917Z,1014.2
2023-03-24T13:48:28.825Z,1014.1
2023-03-24T13:50:28.859Z,1014.1
2023-03-24T13:52:28.946Z,1014.1
2023-03-24T13:54:28.790Z,1014
2023-03-24T13:56:28.898Z,1013.9
2023-03-24T13:58:28.807Z,1013.9
2023-03-24T14:00:28.836Z,1014
2023-03-24T14:02:29.073Z,1014.1
2023-03-24T14:04:28.841Z,1014.1
2023-03-24T14:06:28.807Z,1014.2
2023-03-24T14:08:28.817Z,1014.3
2023-03-24T14:10:28.824Z,1014.3
2023-03-24T14:12:28.825Z,1014.3
2023-03-24T14:14:28.860Z,1014.3
2023-03-24T14:16:28.828Z,1014.3
2023-03-24T14:18:28.870Z,1014.2
2023-03-24T14:20:28.909Z,1014.1
2023-03-24T14:22:28.809Z,1014.1
2023-03-24T14:24:28.817Z,1014
2023-03-24T14:26:28.789Z,1014
2023-03-24T14:28:28.813Z,1014
2023-03-24T14:30:28.786Z,1014
2023-03-24T14:32:28.822Z,1014
2023-03-24T14:34:28.746Z,1014
2023-03-24T14:36:28.826Z,1014
2023-03-24T14:38:28.761Z,1014.1
2023-03-24T14:40:29.634Z,1014
2023-03-24T14:41:58.697Z,1014
2023-03-24T14:42:28.803Z,1014
2023-03-24T14:43:44.427Z,1014
2023-03-24T14:44:28.739Z,1014
2023-03-24T14:46:28.835Z,1014
2023-03-24T14:48:28.739Z,1013.9
2023-03-24T14:50:28.793Z,1013.9
2023-03-24T14:52:28.764Z,1013.8
2023-03-24T14:54:28.743Z,1013.9
2023-03-24T14:56:28.808Z,1013.8
2023-03-24T14:58:28.753Z,1013.8
2023-03-24T15:00:28.808Z,1013.9
2023-03-24T15:01:47.579Z,1013.9
2023-03-24T15:04:28.742Z,1013.9
2023-03-24T15:06:28.739Z,1013.9
2023-03-24T15:08:28.752Z,1013.8
2023-03-24T15:10:28.760Z,1013.8
2023-03-24T15:12:28.778Z,1013.7
2023-03-24T15:14:28.727Z,1013.7
2023-03-24T15:16:28.821Z,1013.6
2023-03-24T15:18:28.738Z,1013.6
2023-03-24T15:20:28.733Z,1013.6
2023-03-24T15:22:28.689Z,1013.6
2023-03-24T15:23:44.798Z,1013.6
2023-03-24T15:26:28.813Z,1013.6
2023-03-24T15:28:28.680Z,1013.6
2023-03-24T15:30:28.745Z,1013.6
2023-03-24T15:32:28.843Z,1013.5
2023-03-24T15:34:28.791Z,1013.5
2023-03-24T15:36:28.716Z,1013.6
2023-03-24T15:38:28.731Z,1013.5
2023-03-24T15:40:28.737Z,1013.5
2023-03-24T15:42:28.722Z,1013.4
2023-03-24T15:44:28.732Z,1013.4
2023-03-24T15:46:28.791Z,1013.3
2023-03-24T15:48:09.650Z,1013.3
2023-03-24T15:51:17.185Z,1013.3
2023-03-24T15:52:28.709Z,1013.3
2023-03-24T15:54:28.688Z,1013.3
2023-03-24T15:56:28.715Z,1013.3
2023-03-24T15:58:28.733Z,1013.3
2023-03-24T16:00:28.696Z,1013.2
2023-03-24T16:02:28.747Z,1013.2
2023-03-24T16:04:28.722Z,1013.2
2023-03-24T16:06:28.683Z,1013.2
2023-03-24T16:08:28.705Z,1013.2
2023-03-24T16:10:28.689Z,1013.2
2023-03-24T16:12:28.635Z,1013.2
2023-03-24T16:14:47.715Z,1013.2
2023-03-24T16:16:29.692Z,1013.1
2023-03-24T16:18:28.610Z,1013.1
2023-03-24T16:20:28.625Z,1013.1
2023-03-24T16:22:28.734Z,1013.1
2023-03-24T16:24:28.705Z,1013.1
2023-03-24T16:26:28.645Z,1013.1
2023-03-24T16:28:28.630Z,1013
2023-03-24T16:30:53.608Z,1013
2023-03-24T16:32:28.668Z,1013
2023-03-24T16:34:28.645Z,1013
2023-03-24T16:36:28.683Z,1012.9
2023-03-24T16:38:28.712Z,1012.9
2023-03-24T16:40:28.688Z,1012.9
2023-03-24T16:42:28.625Z,1012.8
2023-03-24T16:44:28.601Z,1012.8
2023-03-24T16:46:45.339Z,1012.7
2023-03-24T16:48:28.589Z,1012.7
2023-03-24T16:50:28.737Z,1012.7
2023-03-24T16:52:28.612Z,1012.7
2023-03-24T16:54:28.622Z,1012.7
2023-03-24T16:56:28.707Z,1012.7
2023-03-24T16:58:28.634Z,1012.6
2023-03-24T17:00:28.617Z,1012.6
2023-03-24T17:02:28.636Z,1012.8
2023-03-24T17:04:28.574Z,1012.6
2023-03-24T17:06:28.611Z,1012.6
2023-03-24T17:08:28.611Z,1012.6
2023-03-24T17:10:08.925Z,1012.6
2023-03-24T17:12:28.628Z,1012.5
2023-03-24T17:14:28.591Z,1012.5
2023-03-24T17:16:28.614Z,1012.5
2023-03-24T17:18:28.568Z,1012.4
2023-03-24T17:20:28.573Z,1012.4
2023-03-24T17:22:28.587Z,1012.4
2023-03-24T17:24:28.622Z,1012.5
2023-03-24T17:26:30.313Z,1012.4
2023-03-24T17:28:45.552Z,1012.5
2023-03-24T17:30:28.552Z,1012.4
2023-03-24T17:32:28.631Z,1012.5
2023-03-24T17:34:28.563Z,1012.7
2023-03-24T17:36:28.578Z,1012.8
2023-03-24T17:38:28.576Z,1012.8
2023-03-24T17:40:28.575Z,1012.9
2023-03-24T17:42:28.604Z,1012.9
2023-03-24T17:44:35.215Z,1012.9
2023-03-24T17:46:28.605Z,1012.9
2023-03-24T17:47:56.319Z,1012.9
2023-03-24T17:48:28.601Z,1012.9
2023-03-24T17:50:28.578Z,1012.9
2023-03-24T17:52:28.571Z,1013
2023-03-24T17:54:28.605Z,1012.9
2023-03-24T17:56:28.611Z,1013
2023-03-24T17:58:28.569Z,1013.2
2023-03-24T18:00:28.541Z,1013.2
2023-03-24T18:02:28.655Z,1013.3
2023-03-24T18:04:01.986Z,1013.3
2023-03-24T18:06:28.625Z,1013.2
2023-03-24T18:08:28.633Z,1013.2
2023-03-24T18:10:28.622Z,1013.2
2023-03-24T18:12:28.520Z,1013.2
2023-03-24T18:14:41.365Z,1013.3
2023-03-24T18:16:28.574Z,1013.2
2023-03-24T18:18:28.507Z,1013.1
2023-03-24T18:20:28.534Z,1013.1
2023-03-24T18:22:28.532Z,1013.2
2023-03-24T18:24:08.955Z,1013.2
2023-03-24T18:24:28.461Z,1013.3
2023-03-24T18:26:28.530Z,1013.3
2023-03-24T18:28:40.150Z,1013.3
2023-03-24T18:30:28.485Z,1013.3
2023-03-24T18:32:28.570Z,1013.3
2023-03-24T18:34:28.494Z,1013.3
2023-03-24T18:36:28.494Z,1013.3
2023-03-24T18:38:28.497Z,1013.3
2023-03-24T18:40:17.381Z,1013.3
2023-03-24T18:42:28.545Z,1013.4
2023-03-24T18:44:28.561Z,1013.3
2023-03-24T18:45:53.544Z,1013.3
2023-03-24T18:48:28.489Z,1013.2
2023-03-24T18:50:28.442Z,1013.2
2023-03-24T18:52:28.503Z,1013.2
2023-03-24T18:54:28.474Z,1013.2
2023-03-24T18:56:28.528Z,1013.3
2023-03-24T18:58:28.486Z,1013.3
2023-03-24T19:00:59.717Z,1013.3
2023-03-24T19:02:28.541Z,1013.4
2023-03-24T19:04:28.496Z,1013.5
2023-03-24T19:06:28.464Z,1013.4
2023-03-24T19:08:28.506Z,1013.4
2023-03-24T19:10:28.556Z,1013.5
2023-03-24T19:12:28.471Z,1013.6
2023-03-24T19:14:28.537Z,1013.6
2023-03-24T19:16:28.507Z,1013.5
2023-03-24T19:18:28.445Z,1013.5
2023-03-24T19:20:28.450Z,1013.5
2023-03-24T19:22:28.447Z,1013.4
2023-03-24T19:24:28.484Z,1013.3
2023-03-24T19:26:28.423Z,1013.3
2023-03-24T19:28:28.514Z,1013.3
2023-03-24T19:30:54.320Z,1013.4
2023-03-24T19:32:28.504Z,1013.4
2023-03-24T19:34:28.526Z,1013.3
2023-03-24T19:36:28.420Z,1013.3
2023-03-24T19:38:28.458Z,1013.3
2023-03-24T19:40:28.450Z,1013.3
2023-03-24T19:42:28.437Z,1013.3
2023-03-24T19:44:28.418Z,1013.3
2023-03-24T19:46:28.446Z,1013.2
2023-03-24T19:48:25.269Z,1013.2
2023-03-24T19:48:28.398Z,1013.2
2023-03-24T19:50:28.480Z,1013.1
2023-03-24T19:52:28.449Z,1013.1
2023-03-24T19:54:28.450Z,1013.1
2023-03-24T19:56:28.423Z,1013.2
2023-03-24T19:58:28.405Z,1013
2023-03-24T20:00:28.431Z,1013
2023-03-24T20:02:28.549Z,1013
2023-03-24T20:04:28.423Z,1013.1
2023-03-24T20:06:28.445Z,1013
2023-03-24T20:07:46.754Z,1013
2023-03-24T20:10:28.450Z,1013.1
2023-03-24T20:12:28.459Z,1013
2023-03-24T20:14:28.362Z,1013
2023-03-24T20:16:28.437Z,1013
2023-03-24T20:18:28.422Z,1013
2023-03-24T20:20:28.364Z,1013.1
2023-03-24T20:22:39.150Z,1013.1
2023-03-24T20:24:28.386Z,1012.9
2023-03-24T20:26:28.398Z,1012.9
2023-03-24T20:28:28.384Z,1012.8
2023-03-24T20:30:28.356Z,1012.9
2023-03-24T20:32:28.390Z,1012.9
2023-03-24T20:33:48.691Z,1012.9
2023-03-24T20:34:28.382Z,1012.9
2023-03-24T20:36:28.392Z,1012.9
2023-03-24T20:38:28.390Z,1012.8
2023-03-24T20:40:28.356Z,1012.8
2023-03-24T20:42:28.331Z,1012.8
2023-03-24T20:44:28.369Z,1012.8
2023-03-24T20:46:28.377Z,1012.9
2023-03-24T20:48:28.358Z,1012.9
2023-03-24T20:50:28.329Z,1013
2023-03-24T20:52:28.368Z,1013
2023-03-24T20:54:28.345Z,1013
2023-03-24T20:56:28.402Z,1013
2023-03-24T20:58:28.304Z,1013
2023-03-24T21:00:29.665Z,1013
2023-03-24T21:02:28.474Z,1013
2023-03-24T21:04:28.310Z,1012.9
2023-03-24T21:06:28.311Z,1012.9
2023-03-24T21:08:28.345Z,1012.9
2023-03-24T21:10:28.338Z,1012.9
2023-03-24T21:12:28.362Z,1013
2023-03-24T21:13:37.126Z,1013
2023-03-24T21:14:28.305Z,1012.9
2023-03-24T21:16:28.354Z,1013
2023-03-24T21:18:28.303Z,1013
2023-03-24T21:20:28.447Z,1013.1
2023-03-24T21:22:52.130Z,1013.1
2023-03-24T21:24:28.372Z,1013.1
2023-03-24T21:26:30.259Z,1013.1
2023-03-24T21:28:28.316Z,1013.1
2023-03-24T21:30:28.341Z,1013.1
2023-03-24T21:32:28.359Z,1013.1
2023-03-24T21:34:28.298Z,1013
2023-03-24T21:36:05.365Z,1013
2023-03-24T21:36:28.280Z,1013
2023-03-24T21:38:28.320Z,1013.1
2023-03-24T21:40:28.303Z,1013.1
2023-03-24T21:42:28.301Z,1013.1
2023-03-24T21:43:54.006Z,1013.1
2023-03-24T21:46:28.280Z,1013
2023-03-24T21:48:28.300Z,1013
2023-03-24T21:50:28.278Z,1013.1
2023-03-24T21:52:28.259Z,1013.1
2023-03-24T21:54:28.281Z,1013
2023-03-24T21:56:28.326Z,1013
2023-03-24T21:58:28.271Z,1013.1
2023-03-24T22:00:28.282Z,1013.1
2023-03-24T22:02:28.274Z,1013.1
2023-03-24T22:04:28.271Z,1013.1
2023-03-24T22:06:28.284Z,1013.1
2023-03-24T22:08:28.255Z,1013.1
2023-03-24T22:10:28.275Z,1013.1
2023-03-24T22:12:28.257Z,1013.1
2023-03-24T22:14:28.248Z,1013.1
2023-03-24T22:16:28.307Z,1013.1
2023-03-24T22:18:28.227Z,1013.1
2023-03-24T22:20:28.388Z,1013.2
2023-03-24T22:22:28.281Z,1013.3
2023-03-24T22:24:28.264Z,1013.4
2023-03-24T22:26:28.250Z,1013.4
2023-03-24T22:28:28.220Z,1013.3
2023-03-24T22:30:28.240Z,1013.3
2023-03-24T22:32:28.368Z,1013.4
2023-03-24T22:34:28.251Z,1013.5
2023-03-24T22:36:28.373Z,1013.6
2023-03-24T22:38:28.285Z,1013.7
2023-03-24T22:40:28.240Z,1013.7
2023-03-24T22:42:28.237Z,1013.7
2023-03-24T22:44:28.586Z,1013.7
2023-03-24T22:46:28.233Z,1013.8
2023-03-24T22:48:28.249Z,1014
2023-03-24T22:50:28.358Z,1014
2023-03-24T22:52:34.146Z,1014
2023-03-24T22:54:28.198Z,1014
2023-03-24T22:56:28.274Z,1014.1
2023-03-24T22:58:28.191Z,1014.2
2023-03-24T23:00:29.850Z,1014.2
2023-03-24T23:02:28.250Z,1014.3
2023-03-24T23:04:28.261Z,1014.3
2023-03-24T23:06:28.206Z,1014.3
2023-03-24T23:08:28.208Z,1014.4
2023-03-24T23:10:28.257Z,1014.4
2023-03-24T23:12:28.255Z,1014.5
2023-03-24T23:14:28.837Z,1014.5
2023-03-24T23:16:28.359Z,1014.6
2023-03-24T23:18:28.185Z,1014.6
2023-03-24T23:20:28.346Z,1014.6
2023-03-24T23:22:28.188Z,1014.6
2023-03-24T23:24:28.485Z,1014.7
2023-03-24T23:26:28.263Z,1014.8
2023-03-24T23:28:28.222Z,1014.8
2023-03-24T23:30:28.198Z,1014.7
2023-03-24T23:32:34.947Z,1014.8
2023-03-24T23:32:42.424Z,1014.8
2023-03-24T23:34:28.215Z,1014.8
2023-03-24T23:36:28.265Z,1014.8
2023-03-24T23:38:28.160Z,1014.8
2023-03-24T23:40:28.164Z,1014.8
2023-03-24T23:42:28.208Z,1014.7
2023-03-24T23:44:28.271Z,1014.7
2023-03-24T23:46:28.261Z,1014.7
2023-03-24T23:48:28.153Z,1014.7
2023-03-24T23:50:28.163Z,1014.7
2023-03-24T23:52:28.153Z,1014.7
2023-03-24T23:54:28.191Z,1014.7
2023-03-24T23:56:28.166Z,1014.7
2023-03-24T23:58:28.135Z,1014.8
